createdAt,value
2022-12-08T00:00:26.219Z,6.33
2022-12-08T00:03:12.214Z,6.73
2022-12-08T00:06:05.156Z,8.63
2022-12-08T00:09:29.087Z,7.17
2022-12-08T00:12:30.578Z,6.90
2022-12-08T00:15:17.878Z,6.57
2022-12-08T00:18:06.328Z,7.57
2022-12-08T00:20:47.883Z,6.03
2022-12-08T00:25:44.052Z,7.27
2022-12-08T00:27:51.763Z,9.03
2022-12-08T00:34:30.000Z,5.73
2022-12-08T00:38:15.951Z,7.40
2022-12-08T00:41:53.378Z,6.50
2022-12-08T00:44:56.074Z,5.23
2022-12-08T00:47:30.777Z,7.20
2022-12-08T00:50:00.390Z,6.13
2022-12-08T00:52:28.252Z,4.93
2022-12-08T00:54:58.321Z,6.13
2022-12-08T00:57:46.746Z,5.93
2022-12-08T01:00:21.853Z,4.67
2022-12-08T01:02:52.423Z,4.07
2022-12-08T01:14:31.804Z,4.13
2022-12-08T01:17:13.071Z,4.63
2022-12-08T01:19:46.392Z,4.87
2022-12-08T01:22:16.565Z,4.40
2022-12-08T01:24:44.500Z,6.97
2022-12-08T01:27:11.683Z,4.33
2022-12-08T01:29:41.830Z,5.17
2022-12-08T01:32:22.139Z,6.80
2022-12-08T01:34:52.961Z,4.20
2022-12-08T01:37:20.362Z,7.43
2022-12-08T01:39:47.587Z,6.20
2022-12-08T01:42:34.672Z,4.73
2022-12-08T01:45:07.746Z,4.43
2022-12-08T01:47:52.228Z,7.43
2022-12-08T01:50:29.624Z,6.00
2022-12-08T01:53:01.663Z,5.57
2022-12-08T01:55:54.782Z,7.13
2022-12-08T01:58:32.376Z,8.50
2022-12-08T02:01:00.284Z,7.37
2022-12-08T02:03:57.024Z,4.83
2022-12-08T02:06:25.093Z,7.90
2022-12-08T02:08:55.313Z,5.27
2022-12-08T02:11:22.982Z,3.73
2022-12-08T02:13:52.175Z,4.77
2022-12-08T02:16:49.420Z,7.80
2022-12-08T02:19:56.197Z,5.43
2022-12-08T02:22:38.577Z,7.37
2022-12-08T02:25:37.290Z,6.63
2022-12-08T02:28:41.306Z,5.57
2022-12-08T02:32:01.352Z,6.97
2022-12-08T02:39:07.776Z,5.33
2022-12-08T02:42:23.813Z,7.43
2022-12-08T02:45:16.482Z,7.83
2022-12-08T02:48:05.464Z,7.03
2022-12-08T02:51:28.317Z,6.17
2022-12-08T02:53:59.464Z,8.53
2022-12-08T02:56:47.299Z,6.50
2022-12-08T02:59:28.171Z,6.17
2022-12-08T03:03:17.342Z,7.07
2022-12-08T03:05:58.049Z,6.03
2022-12-08T03:08:58.036Z,7.63
2022-12-08T03:11:45.353Z,7.83
2022-12-08T03:14:16.899Z,10.27
2022-12-08T03:16:51.925Z,7.47
2022-12-08T03:19:38.972Z,7.60
2022-12-08T03:22:20.464Z,5.20
2022-12-08T03:24:48.423Z,5.93
2022-12-08T03:27:20.184Z,6.27
2022-12-08T03:29:50.506Z,9.40
2022-12-08T03:32:20.476Z,6.40
2022-12-08T03:34:53.185Z,9.87
2022-12-08T03:37:21.243Z,10.13
2022-12-08T03:39:48.533Z,7.27
2022-12-08T03:42:17.333Z,11.17
2022-12-08T03:44:44.661Z,7.27
2022-12-08T03:47:11.806Z,8.87
2022-12-08T03:49:39.165Z,9.07
2022-12-08T03:52:06.314Z,7.43
2022-12-08T03:54:33.443Z,7.93
2022-12-08T03:57:01.149Z,8.03
2022-12-08T03:59:28.245Z,8.40
2022-12-08T04:01:55.505Z,10.13
2022-12-08T04:04:23.004Z,7.53
2022-12-08T04:06:50.863Z,10.03
2022-12-08T04:09:21.502Z,8.80
2022-12-08T04:11:49.268Z,9.67
2022-12-08T04:14:38.029Z,8.90
2022-12-08T04:17:05.171Z,11.40
2022-12-08T04:19:32.521Z,9.53
2022-12-08T04:22:02.871Z,8.97
2022-12-08T04:27:22.553Z,8.50
2022-12-08T04:29:56.067Z,11.00
2022-12-08T04:32:23.053Z,12.47
2022-12-08T04:34:50.223Z,12.43
2022-12-08T04:37:19.969Z,11.30
2022-12-08T04:39:47.077Z,9.80
2022-12-08T04:42:14.448Z,12.37
2022-12-08T04:44:41.570Z,11.97
2022-12-08T04:47:08.832Z,11.67
2022-12-08T04:49:58.153Z,9.73
2022-12-08T04:52:59.667Z,13.00
2022-12-08T04:55:28.358Z,9.53
2022-12-08T04:58:04.073Z,10.80
2022-12-08T05:00:31.815Z,12.43
2022-12-08T05:02:59.236Z,12.07
2022-12-08T05:05:26.538Z,11.47
2022-12-08T05:08:07.662Z,12.23
2022-12-08T05:10:37.492Z,10.53
2022-12-08T05:13:08.365Z,9.17
2022-12-08T05:19:39.905Z,10.93
2022-12-08T05:22:18.969Z,13.23
2022-12-08T05:25:29.937Z,12.17
2022-12-08T05:28:17.603Z,11.37
2022-12-08T05:30:45.137Z,11.93
2022-12-08T05:33:19.556Z,16.20
2022-12-08T05:35:46.630Z,13.67
2022-12-08T05:38:16.214Z,12.47
2022-12-08T05:40:48.587Z,12.03
2022-12-08T05:43:15.671Z,12.43
2022-12-08T05:45:42.841Z,12.30
2022-12-08T05:48:10.336Z,11.60
2022-12-08T05:50:37.654Z,12.37
2022-12-08T05:53:04.904Z,12.40
2022-12-08T05:55:32.567Z,11.20
2022-12-08T05:58:03.127Z,11.40
2022-12-08T06:00:35.098Z,10.50
2022-12-08T06:03:02.311Z,14.03
2022-12-08T06:05:29.421Z,13.40
2022-12-08T06:07:56.680Z,15.13
2022-12-08T06:10:27.195Z,13.90
2022-12-08T06:12:54.554Z,12.40
2022-12-08T06:15:21.565Z,13.97
2022-12-08T06:17:48.634Z,13.67
2022-12-08T06:20:15.894Z,14.10
2022-12-08T06:22:43.159Z,13.90
2022-12-08T06:25:10.519Z,18.13
2022-12-08T06:27:37.537Z,11.20
2022-12-08T06:30:05.437Z,13.03
2022-12-08T06:32:32.708Z,12.53
2022-12-08T06:35:00.073Z,11.90
2022-12-08T06:37:27.158Z,14.53
2022-12-08T06:39:57.229Z,12.03
2022-12-08T06:42:42.507Z,14.30
2022-12-08T06:45:10.242Z,15.77
2022-12-08T06:47:37.185Z,11.90
2022-12-08T06:50:05.661Z,14.50
2022-12-08T06:52:32.935Z,15.50
2022-12-08T06:54:59.838Z,14.97
2022-12-08T06:57:26.909Z,12.03
2022-12-08T06:59:53.870Z,14.37
2022-12-08T07:02:29.539Z,13.93
2022-12-08T07:04:56.873Z,17.47
2022-12-08T07:07:26.942Z,16.97
2022-12-08T07:09:54.242Z,14.50
2022-12-08T07:12:21.681Z,13.73
2022-12-08T07:15:00.079Z,14.77
2022-12-08T07:17:31.026Z,14.87
2022-12-08T07:19:58.263Z,11.27
2022-12-08T07:22:25.334Z,14.53
2022-12-08T07:24:52.240Z,13.67
2022-12-08T07:27:19.238Z,16.27
2022-12-08T07:29:46.336Z,16.23
2022-12-08T07:32:13.289Z,13.50
2022-12-08T07:34:40.245Z,19.43
2022-12-08T07:37:07.491Z,18.70
2022-12-08T07:39:34.544Z,16.83
2022-12-08T07:42:01.629Z,16.90
2022-12-08T07:44:28.540Z,16.63
2022-12-08T07:46:55.927Z,17.47
2022-12-08T07:49:22.951Z,17.07
2022-12-08T07:51:49.859Z,16.40
2022-12-08T07:54:16.925Z,13.03
2022-12-08T07:56:46.784Z,13.97
2022-12-08T07:59:14.723Z,16.70
2022-12-08T08:01:45.319Z,17.30
2022-12-08T08:04:12.919Z,18.73
2022-12-08T08:06:40.200Z,14.93
2022-12-08T08:09:08.901Z,17.10
2022-12-08T08:11:36.068Z,16.10
2022-12-08T08:14:03.639Z,14.80
2022-12-08T08:16:35.092Z,16.33
2022-12-08T08:19:05.958Z,14.60
2022-12-08T08:21:46.115Z,14.43
2022-12-08T08:24:19.346Z,12.53
2022-12-08T08:26:46.782Z,15.27
2022-12-08T08:29:22.244Z,15.30
2022-12-08T08:32:01.273Z,14.43
2022-12-08T08:34:31.606Z,15.17
2022-12-08T08:36:59.449Z,17.17
2022-12-08T08:39:32.106Z,17.50
2022-12-08T08:42:05.845Z,14.33
2022-12-08T08:44:39.272Z,15.37
2022-12-08T08:47:09.314Z,16.13
2022-12-08T08:49:36.406Z,20.13
2022-12-08T08:52:07.465Z,19.77
2022-12-08T08:54:38.214Z,17.07
2022-12-08T08:57:05.946Z,14.70
2022-12-08T08:59:32.968Z,15.33
2022-12-08T09:02:00.633Z,13.60
2022-12-08T09:04:30.958Z,15.80
2022-12-08T09:07:15.479Z,18.27
2022-12-08T09:09:42.600Z,16.83
2022-12-08T09:12:09.884Z,17.00
2022-12-08T09:14:39.372Z,18.67
2022-12-08T09:17:07.205Z,18.53
2022-12-08T09:19:35.120Z,20.27
2022-12-08T09:22:02.456Z,17.40
2022-12-08T09:24:38.227Z,16.83
2022-12-08T09:27:08.749Z,16.00
2022-12-08T09:29:49.446Z,18.60
2022-12-08T09:32:22.654Z,18.50
2022-12-08T09:35:07.179Z,19.30
2022-12-08T09:37:40.135Z,20.70
2022-12-08T09:40:23.978Z,18.43
2022-12-08T09:43:00.901Z,20.67
2022-12-08T09:45:47.256Z,19.03
2022-12-08T09:48:28.465Z,19.47
2022-12-08T09:53:50.937Z,19.43
2022-12-08T09:56:35.906Z,20.53
2022-12-08T09:59:30.667Z,23.27
2022-12-08T10:01:58.497Z,21.07
2022-12-08T10:04:46.325Z,20.80
2022-12-08T10:07:49.758Z,20.57
2022-12-08T10:10:43.749Z,22.17
2022-12-08T10:13:46.227Z,22.07
2022-12-08T10:16:30.560Z,23.37
2022-12-08T10:19:15.787Z,19.87
2022-12-08T10:21:52.001Z,24.10
2022-12-08T10:25:17.670Z,23.40
2022-12-08T10:27:47.013Z,22.83
2022-12-08T10:30:16.075Z,19.00
2022-12-08T10:32:46.351Z,22.63
2022-12-08T10:35:15.838Z,22.57
2022-12-08T10:38:18.232Z,19.73
2022-12-08T10:40:53.633Z,22.23
2022-12-08T10:43:25.798Z,22.30
2022-12-08T10:45:53.083Z,22.80
2022-12-08T10:48:24.395Z,22.73
2022-12-08T10:51:05.737Z,23.70
2022-12-08T10:53:47.181Z,21.70
2022-12-08T10:56:18.617Z,22.13
2022-12-08T10:58:47.721Z,21.93
2022-12-08T11:01:37.628Z,19.93
2022-12-08T11:04:14.231Z,22.00
2022-12-08T11:06:42.308Z,23.47
2022-12-08T11:09:22.614Z,23.07
2022-12-08T11:12:00.228Z,22.10
2022-12-08T11:15:03.300Z,21.90
2022-12-08T11:17:39.419Z,22.53
2022-12-08T11:20:13.155Z,22.37
2022-12-08T11:22:52.045Z,25.60
2022-12-08T11:25:33.836Z,19.90
2022-12-08T11:28:15.743Z,26.07
2022-12-08T11:30:50.361Z,24.23
2022-12-08T11:33:34.321Z,25.10
2022-12-08T11:36:15.220Z,24.30
2022-12-08T11:38:56.101Z,28.20
2022-12-08T11:42:05.100Z,27.83
2022-12-08T11:44:45.278Z,28.17
2022-12-08T11:47:55.452Z,24.83
2022-12-08T11:50:29.772Z,27.40
2022-12-08T11:53:04.700Z,24.13
2022-12-08T11:56:08.610Z,28.17
2022-12-08T12:01:57.085Z,24.67
2022-12-08T12:04:44.712Z,27.20
2022-12-08T12:07:57.974Z,24.80
2022-12-08T12:14:22.813Z,27.03
2022-12-08T12:17:24.666Z,26.90
2022-12-08T12:19:55.978Z,29.77
2022-12-08T12:22:29.675Z,27.73
2022-12-08T12:25:09.271Z,28.40
2022-12-08T12:27:40.829Z,27.80
2022-12-08T12:30:18.759Z,26.80
2022-12-08T12:33:00.579Z,29.90
2022-12-08T12:35:37.963Z,28.80
2022-12-08T12:38:29.167Z,26.37
2022-12-08T12:41:02.684Z,26.27
2022-12-08T12:43:37.543Z,33.80
2022-12-08T12:46:32.216Z,31.30
2022-12-08T12:49:38.078Z,32.57
2022-12-08T12:52:21.337Z,30.40
2022-12-08T12:54:51.118Z,32.47
2022-12-08T12:57:27.979Z,33.13
2022-12-08T13:00:06.583Z,31.13
2022-12-08T13:02:44.618Z,33.70
2022-12-08T13:05:25.232Z,29.80
2022-12-08T13:08:27.547Z,33.10
2022-12-08T13:11:04.723Z,31.03
2022-12-08T13:13:32.651Z,30.03
2022-12-08T13:16:23.281Z,30.50
2022-12-08T13:18:53.371Z,32.83
2022-12-08T13:21:25.401Z,29.77
2022-12-08T13:24:29.521Z,33.60
2022-12-08T13:27:08.446Z,33.47
2022-12-08T13:29:39.564Z,31.57
2022-12-08T13:32:12.163Z,32.53
2022-12-08T13:34:46.642Z,31.90
2022-12-08T13:37:13.885Z,34.33
2022-12-08T13:39:59.465Z,31.23
2022-12-08T13:43:05.183Z,32.23
2022-12-08T13:46:41.987Z,33.50
2022-12-08T13:50:36.616Z,34.70
2022-12-08T13:57:42.935Z,38.13
2022-12-08T14:00:19.229Z,37.47
2022-12-08T14:02:49.204Z,34.97
2022-12-08T14:05:40.833Z,36.60
2022-12-08T14:08:57.112Z,35.70
2022-12-08T14:11:36.911Z,32.30
2022-12-08T14:15:01.680Z,35.53
2022-12-08T14:17:43.386Z,33.93
2022-12-08T14:20:46.473Z,36.77
2022-12-08T14:23:21.516Z,30.60
2022-12-08T14:25:52.206Z,35.57
2022-12-08T14:28:19.835Z,34.63
2022-12-08T14:30:54.567Z,34.17
2022-12-08T14:33:22.363Z,34.70
2022-12-08T14:35:57.821Z,35.43
2022-12-08T14:38:26.276Z,34.07
2022-12-08T14:41:15.005Z,34.40
2022-12-08T14:43:43.174Z,34.43
2022-12-08T14:46:23.547Z,31.70
2022-12-08T14:48:50.725Z,37.30
2022-12-08T14:51:21.057Z,33.43
2022-12-08T14:54:03.135Z,36.20
2022-12-08T14:56:57.448Z,36.47
2022-12-08T14:59:34.194Z,31.97
2022-12-08T15:02:09.974Z,36.97
2022-12-08T15:04:45.664Z,36.53
2022-12-08T15:07:17.142Z,35.00
2022-12-08T15:09:50.023Z,33.73
2022-12-08T15:12:26.857Z,33.87
2022-12-08T15:15:01.267Z,36.63
2022-12-08T15:17:40.435Z,35.57
2022-12-08T15:20:33.178Z,37.50
2022-12-08T15:23:03.272Z,35.60
2022-12-08T15:25:30.395Z,36.70
2022-12-08T15:27:58.099Z,36.27
2022-12-08T15:30:28.688Z,36.23
2022-12-08T15:32:56.402Z,34.73
2022-12-08T15:35:27.444Z,36.43
2022-12-08T15:37:54.336Z,34.60
2022-12-08T15:40:23.231Z,35.67
2022-12-08T15:42:50.335Z,35.57
2022-12-08T15:45:17.860Z,35.50
2022-12-08T15:47:45.513Z,34.27
2022-12-08T15:50:18.797Z,34.17
2022-12-08T15:52:46.780Z,34.87
2022-12-08T15:55:19.181Z,33.73
2022-12-08T16:00:57.459Z,36.60
2022-12-08T16:09:17.540Z,36.60
2022-12-08T16:12:11.006Z,35.67
2022-12-08T16:15:47.020Z,37.60
2022-12-08T16:17:37.131Z,35.70
2022-12-08T16:20:07.553Z,34.57
2022-12-08T16:23:03.178Z,34.07
2022-12-08T16:25:46.100Z,33.53
2022-12-08T16:31:13.065Z,32.40
2022-12-08T16:33:46.374Z,34.60
2022-12-08T16:36:13.287Z,33.70
2022-12-08T16:38:40.139Z,35.83
2022-12-08T16:41:25.665Z,33.67
2022-12-08T16:43:53.061Z,33.80
2022-12-08T16:46:23.897Z,37.43
2022-12-08T16:48:50.832Z,33.57
2022-12-08T16:51:25.075Z,31.67
2022-12-08T16:53:53.814Z,36.23
2022-12-08T16:56:25.007Z,32.87
2022-12-08T16:58:55.711Z,32.83
2022-12-08T17:01:23.885Z,34.00
2022-12-08T17:04:14.201Z,31.73
2022-12-08T17:06:37.936Z,32.63
2022-12-08T17:09:05.343Z,31.07
2022-12-08T17:11:36.219Z,33.23
2022-12-08T17:14:06.582Z,30.27
2022-12-08T17:16:33.593Z,28.53
2022-12-08T17:19:00.559Z,28.50
2022-12-08T17:21:27.649Z,32.07
2022-12-08T17:23:55.892Z,33.07
2022-12-08T17:26:22.915Z,29.33
2022-12-08T17:29:01.442Z,28.97
2022-12-08T17:31:31.263Z,29.10
2022-12-08T17:34:03.784Z,29.40
2022-12-08T17:36:31.311Z,28.07
2022-12-08T17:39:00.011Z,28.50
2022-12-08T17:41:41.388Z,28.60
2022-12-08T17:44:23.602Z,28.60
2022-12-08T17:46:53.321Z,29.67
2022-12-08T17:49:23.746Z,29.40
2022-12-08T17:52:03.794Z,30.47
2022-12-08T17:54:31.164Z,29.53
2022-12-08T17:56:58.936Z,29.30
2022-12-08T17:59:28.425Z,31.30
2022-12-08T18:01:57.067Z,28.37
2022-12-08T18:04:28.275Z,28.20
2022-12-08T18:07:00.850Z,26.63
2022-12-08T18:09:30.461Z,28.83
2022-12-08T18:12:00.886Z,27.63
2022-12-08T18:14:28.265Z,30.07
2022-12-08T18:16:58.013Z,28.10
2022-12-08T18:19:26.596Z,27.63
2022-12-08T18:21:53.661Z,27.20
2022-12-08T18:24:23.281Z,26.80
2022-12-08T18:26:52.477Z,29.00
2022-12-08T18:29:21.485Z,28.37
2022-12-08T18:31:49.980Z,29.33
2022-12-08T18:34:19.056Z,30.00
2022-12-08T18:36:47.080Z,27.87
2022-12-08T18:39:33.439Z,30.13
2022-12-08T18:42:23.053Z,27.73
2022-12-08T18:45:07.367Z,28.87
2022-12-08T18:47:39.117Z,33.97
2022-12-08T18:50:08.618Z,31.33
2022-12-08T18:52:39.363Z,30.37
2022-12-08T18:55:07.823Z,30.27
2022-12-08T18:57:38.772Z,30.03
2022-12-08T19:00:08.122Z,31.13
2022-12-08T19:02:36.545Z,32.07
2022-12-08T19:05:04.409Z,29.10
2022-12-08T19:07:31.567Z,30.13
2022-12-08T19:10:01.607Z,31.57
2022-12-08T19:12:29.455Z,33.23
2022-12-08T19:14:59.986Z,30.00
2022-12-08T19:17:30.224Z,31.60
2022-12-08T19:20:00.486Z,29.37
2022-12-08T19:22:33.715Z,28.97
2022-12-08T19:25:13.553Z,33.67
2022-12-08T19:27:53.240Z,32.67
2022-12-08T19:30:23.257Z,34.17
2022-12-08T19:32:51.236Z,34.80
2022-12-08T19:35:21.972Z,32.57
2022-12-08T19:37:49.037Z,29.37
2022-12-08T19:40:35.021Z,33.80
2022-12-08T19:43:20.353Z,32.53
2022-12-08T19:45:47.913Z,32.00
2022-12-08T19:48:15.090Z,32.57
2022-12-08T19:50:46.747Z,33.17
2022-12-08T19:53:17.884Z,33.03
2022-12-08T19:55:45.194Z,33.50
2022-12-08T19:58:12.699Z,31.87
2022-12-08T20:00:55.172Z,32.33
2022-12-08T20:03:25.744Z,32.50
2022-12-08T20:05:53.615Z,33.10
2022-12-08T20:08:26.903Z,29.27
2022-12-08T20:10:56.287Z,30.20
2022-12-08T20:13:41.684Z,34.70
2022-12-08T20:16:09.180Z,31.37
2022-12-08T20:19:02.723Z,33.00
2022-12-08T20:21:30.071Z,30.87
2022-12-08T20:23:57.266Z,32.40
2022-12-08T20:26:25.046Z,32.90
2022-12-08T20:28:52.674Z,35.33
2022-12-08T20:31:27.783Z,30.27
2022-12-08T20:33:55.449Z,34.73
2022-12-08T20:36:24.346Z,33.80
2022-12-08T20:38:52.592Z,31.07
2022-12-08T20:41:19.782Z,30.27
2022-12-08T20:43:47.919Z,33.63
2022-12-08T20:46:17.083Z,30.47
2022-12-08T20:48:44.732Z,35.70
2022-12-08T20:51:19.567Z,29.87
2022-12-08T20:53:46.842Z,31.10
2022-12-08T20:56:19.467Z,32.47
2022-12-08T20:58:47.669Z,30.80
2022-12-08T21:01:26.789Z,32.60
2022-12-08T21:03:54.534Z,31.00
2022-12-08T21:06:24.577Z,33.90
2022-12-08T21:08:52.599Z,30.53
2022-12-08T21:11:20.032Z,34.27
2022-12-08T21:13:47.565Z,34.70
2022-12-08T21:16:15.605Z,35.33
2022-12-08T21:18:43.485Z,34.17
2022-12-08T21:21:14.387Z,34.50
2022-12-08T21:23:42.855Z,33.03
2022-12-08T21:26:15.135Z,32.97
2022-12-08T21:28:42.915Z,35.60
2022-12-08T21:31:11.624Z,32.00
2022-12-08T21:33:39.608Z,29.67
2022-12-08T21:36:10.791Z,33.37
2022-12-08T21:38:42.413Z,33.23
2022-12-08T21:41:12.946Z,33.70
2022-12-08T21:43:40.797Z,35.93
2022-12-08T21:46:16.625Z,34.17
2022-12-08T21:48:43.944Z,34.57
2022-12-08T21:51:11.018Z,37.20
2022-12-08T21:53:38.088Z,34.60
2022-12-08T21:56:09.195Z,34.97
2022-12-08T21:58:36.349Z,33.60
2022-12-08T22:01:08.373Z,34.57
2022-12-08T22:03:36.553Z,35.83
2022-12-08T22:06:10.868Z,33.73
2022-12-08T22:08:38.775Z,37.17
2022-12-08T22:11:08.111Z,35.80
2022-12-08T22:13:37.083Z,37.13
2022-12-08T22:16:06.817Z,36.13
2022-12-08T22:18:35.763Z,34.13
2022-12-08T22:21:09.797Z,39.20
2022-12-08T22:23:39.287Z,36.87
2022-12-08T22:26:07.511Z,36.97
2022-12-08T22:28:44.798Z,39.20
2022-12-08T22:31:20.971Z,36.80
2022-12-08T22:33:51.153Z,35.17
2022-12-08T22:36:26.165Z,37.07
2022-12-08T22:38:54.251Z,37.77
2022-12-08T22:41:24.543Z,39.67
2022-12-08T22:43:52.309Z,35.00
2022-12-08T22:46:25.212Z,36.00
2022-12-08T22:48:52.917Z,40.63
2022-12-08T22:51:23.749Z,37.90
2022-12-08T22:53:51.002Z,32.73
2022-12-08T22:56:19.220Z,38.33
2022-12-08T22:58:46.456Z,40.37
2022-12-08T23:01:29.372Z,36.43
2022-12-08T23:03:57.523Z,40.33
2022-12-08T23:06:25.815Z,35.90
2022-12-08T23:08:53.614Z,37.77
2022-12-08T23:11:22.682Z,35.17
2022-12-08T23:13:54.070Z,35.80
2022-12-08T23:16:33.535Z,40.33
2022-12-08T23:19:01.015Z,36.23
2022-12-08T23:21:29.214Z,36.43
2022-12-08T23:23:56.357Z,39.73
2022-12-08T23:26:27.615Z,36.80
2022-12-08T23:28:55.672Z,38.47
2022-12-08T23:31:23.117Z,34.37
2022-12-08T23:33:50.826Z,39.07
2022-12-08T23:36:19.661Z,38.13
2022-12-08T23:38:46.903Z,37.33
2022-12-08T23:41:18.435Z,38.53
2022-12-08T23:43:47.892Z,36.43
2022-12-08T23:46:16.863Z,37.43
2022-12-08T23:48:44.660Z,36.30
2022-12-08T23:51:12.582Z,39.23
2022-12-08T23:53:39.863Z,37.73
2022-12-08T23:56:09.593Z,40.57
2022-12-08T23:58:39.012Z,39.70
